This is the latest recevied weather packets stored in our database for station/object WC4PEM-9. If no packets are shown the sender has not sent any weather packets the latest 10 day(s).
| Time | Temp. | Humidity | Pressure | Rain* | Wind** | Luminosity | Snow |
|---|---|---|---|---|---|---|---|
| 1777843414 | 25.56° C | 61% | 1015 hPa | 0 mm | - | - | - |
| 1777843300 | 25.56° C | 63% | 1015.1 hPa | 0 mm | - | - | - |
| 1777843114 | 25.56° C | 63% | 1015.1 hPa | 0 mm | - | - | - |
| 1777842902 | 25.56° C | 62% | 1014.9 hPa | 0 mm | - | - | - |
| 1777842814 | 25.56° C | 62% | 1014.9 hPa | 0 mm | - | - | - |
| 1777842612 | 25.56° C | 60% | 1014.6 hPa | 0 mm | - | - | - |
| 1777842514 | 25.56° C | 60% | 1014.6 hPa | 0 mm | - | - | - |
| 1777842302 | 25.56° C | 59% | 1014.8 hPa | 0 mm | - | - | - |
| 1777842213 | 25.56° C | 59% | 1014.8 hPa | 0 mm | - | - | - |
| 1777841914 | 25.56° C | 60% | 1014.8 hPa | 0 mm | - | - | - |
| 1777841614 | 26.11° C | 60% | 1014.8 hPa | 0 mm | - | - | - |
| 1777841314 | 26.11° C | 60% | 1014.9 hPa | 0 mm | - | - | - |
| 1777841014 | 26.11° C | 59% | 1015 hPa | 0 mm | - | - | - |
| 1777840898 | 26.11° C | 58% | 1015.1 hPa | 0 mm | - | - | - |
| 1777840714 | 26.11° C | 59% | 1015.1 hPa | 0 mm | - | - | - |
| 1777840556 | 26.11° C | 59% | 1015.1 hPa | 0 mm | - | - | - |
| 1777840414 | 26.11° C | 58% | 1015.1 hPa | 0 mm | - | - | - |
| 1777840114 | 26.11° C | 59% | 1015.1 hPa | 0 mm | - | - | - |
| 1777839913 | 26.11° C | 61% | 1015.2 hPa | 0 mm | - | - | - |
| 1777839814 | 26.11° C | 58% | 1015.1 hPa | 0 mm | - | - | - |
| 1777839514 | 26.11° C | 61% | 1015.2 hPa | 0 mm | - | - | - |
| 1777839396 | 26.11° C | 60% | 1015 hPa | 0 mm | - | - | - |
| 1777839214 | 26.11° C | 60% | 1015 hPa | 0 mm | - | - | - |
| 1777838914 | 25.56° C | 62% | 1015.1 hPa | 0 mm | - | - | - |
| 1777838614 | 25.56° C | 62% | 1015.2 hPa | 0 mm | - | - | - |
* Rain latest hour (hover to see other rain measurements)
** Current wind speed in m/s (hover to see current wind gust speed)